Time;durP1;ratioP1;P1;durP2;ratioP2;P2;SDS_P1;SDS_P2;PMS_P1;PMS_P2;Temp;Humidity;BMP_temperature;BMP_pressure;BME280_temperature;BME280_humidity;BME280_pressure;Samples;Min_cycle;Max_cycle;Signal;HPM_P1;HPM_P2
2022/09/12 00:02:10;;;;;;;1.87;1.43;;;;;;;13.67;100.00;96684.09;4905416;29;20291;-56
2022/09/12 00:04:37;;;;;;;1.60;1.50;;;;;;;13.63;100.00;96682.75;4905850;29;20529;-56
2022/09/12 00:07:04;;;;;;;2.60;1.77;;;;;;;13.62;100.00;96681.06;4905813;29;20295;-56
2022/09/12 00:09:30;;;;;;;1.60;1.50;;;;;;;13.64;100.00;96678.25;4906127;29;20303;-56
2022/09/12 00:11:57;;;;;;;2.90;1.90;;;;;;;13.60;100.00;96684.88;4907517;29;20306;-56
2022/09/12 00:14:23;;;;;;;1.97;1.63;;;;;;;13.61;100.00;96679.38;4907486;29;20634;-56
2022/09/12 00:16:51;;;;;;;2.63;2.13;;;;;;;13.59;100.00;96676.06;4907227;29;20208;-57
2022/09/12 00:19:18;;;;;;;2.40;1.83;;;;;;;13.56;100.00;96681.72;4905189;29;20651;-55
2022/09/12 00:21:45;;;;;;;2.40;1.97;;;;;;;13.58;100.00;96676.22;4905982;29;20207;-56
2022/09/12 00:24:12;;;;;;;1.90;1.80;;;;;;;13.52;100.00;96676.88;4905914;29;20216;-56
2022/09/12 00:26:39;;;;;;;3.43;1.40;;;;;;;13.44;100.00;96683.81;4905664;29;20726;-56
2022/09/12 00:29:05;;;;;;;2.67;1.77;;;;;;;13.46;100.00;96681.00;4908883;29;20230;-54
2022/09/12 00:31:32;;;;;;;2.00;1.90;;;;;;;13.53;100.00;96675.88;4909611;29;20299;-56
2022/09/12 00:34:00;;;;;;;1.80;1.70;;;;;;;13.45;100.00;96679.34;4909594;29;20222;-56
2022/09/12 00:36:28;;;;;;;1.50;1.40;;;;;;;13.39;100.00;96666.72;4909775;29;20227;-56
2022/09/12 00:38:55;;;;;;;3.13;1.40;;;;;;;13.42;100.00;96669.03;4909362;29;20216;-56
2022/09/12 00:41:24;;;;;;;2.10;1.90;;;;;;;13.42;100.00;96675.19;4909822;29;20207;-57
2022/09/12 00:43:53;;;;;;;2.13;1.93;;;;;;;13.37;100.00;96671.31;4909020;29;20232;-56
2022/09/12 00:46:27;;;;;;;2.80;2.07;;;;;;;13.30;100.00;96665.00;4909292;29;20215;-57
2022/09/12 00:48:56;;;;;;;2.67;2.00;;;;;;;13.26;100.00;96660.97;4910060;29;20221;-56
2022/09/12 00:51:25;;;;;;;3.23;1.70;;;;;;;13.27;100.00;96660.00;4909561;29;20336;-56
2022/09/12 00:53:54;;;;;;;2.07;1.73;;;;;;;13.27;100.00;96665.31;4909626;29;20304;-57
2022/09/12 00:56:22;;;;;;;2.63;2.27;;;;;;;13.25;100.00;96660.16;4909280;29;20733;-57
2022/09/12 00:58:52;;;;;;;1.97;1.80;;;;;;;13.20;100.00;96657.16;4909752;29;20204;-56
2022/09/12 01:01:19;;;;;;;1.97;1.67;;;;;;;13.17;100.00;96661.94;4909298;29;20216;-57
2022/09/12 01:03:45;;;;;;;4.40;1.70;;;;;;;13.11;100.00;96665.25;4908526;29;21582;-56
2022/09/12 01:06:16;;;;;;;2.47;1.80;;;;;;;13.08;100.00;96662.84;4909550;29;20222;-56
2022/09/12 01:08:47;;;;;;;3.00;2.07;;;;;;;13.06;100.00;96659.53;4908908;29;20216;-56
2022/09/12 01:11:14;;;;;;;2.30;1.70;;;;;;;13.05;100.00;96656.03;4908998;29;20599;-56
2022/09/12 01:13:41;;;;;;;2.80;2.17;;;;;;;13.02;100.00;96651.06;4908925;29;20641;-56
2022/09/12 01:16:08;;;;;;;2.87;2.20;;;;;;;12.99;100.00;96640.75;4909052;29;20291;-56
2022/09/12 01:18:44;;;;;;;3.07;1.90;;;;;;;12.98;100.00;96650.53;4908654;29;20299;-56
2022/09/12 01:21:15;;;;;;;3.07;2.27;;;;;;;12.95;100.00;96642.88;4909090;29;20299;-56
2022/09/12 01:24:15;;;;;;;3.93;2.23;;;;;;;12.93;100.00;96642.19;4909239;29;20204;-56
2022/09/12 01:27:15;;;;;;;2.00;1.90;;;;;;;12.95;100.00;96645.53;4895884;29;20228;-54
2022/09/12 01:30:19;;;;;;;1.90;1.80;;;;;;;12.88;100.00;96652.47;4908417;29;20668;-56
2022/09/12 01:32:55;;;;;;;4.13;2.07;;;;;;;12.86;100.00;96635.00;4908906;29;20346;-55
2022/09/12 01:35:26;;;;;;;2.97;2.40;;;;;;;12.87;100.00;96642.84;4908105;29;20250;-56
2022/09/12 01:38:00;;;;;;;2.03;1.90;;;;;;;12.85;100.00;96638.69;4908774;29;20299;-55
2022/09/12 01:40:32;;;;;;;1.90;1.80;;;;;;;12.87;100.00;96636.69;4907514;29;20216;-56
2022/09/12 01:43:07;;;;;;;3.20;2.20;;;;;;;12.80;100.00;96631.19;4908514;29;20314;-56
2022/09/12 01:45:37;;;;;;;2.57;2.10;;;;;;;12.78;100.00;96627.88;4908057;29;20303;-55
2022/09/12 01:48:11;;;;;;;3.23;1.97;;;;;;;12.84;100.00;96623.75;4908014;29;20243;-56
2022/09/12 01:50:44;;;;;;;2.17;1.87;;;;;;;12.85;100.00;96625.41;4908413;29;20214;-56
2022/09/12 01:53:15;;;;;;;2.33;2.17;;;;;;;12.81;100.00;96624.06;4908289;29;20213;-55
2022/09/12 01:55:45;;;;;;;3.33;2.37;;;;;;;12.82;100.00;96623.88;4907963;29;20596;-56
2022/09/12 01:58:14;;;;;;;4.37;2.33;;;;;;;12.84;100.00;96627.22;4908814;29;20264;-55
2022/09/12 02:00:47;;;;;;;2.80;2.37;;;;;;;12.77;100.00;96626.19;4908152;29;20298;-57
2022/09/12 02:03:19;;;;;;;3.73;2.20;;;;;;;12.79;100.00;96618.91;4908178;29;20852;-56
2022/09/12 02:05:50;;;;;;;2.57;2.37;;;;;;;12.70;100.00;96624.31;4907922;29;20300;-56
2022/09/12 02:08:19;;;;;;;4.67;2.40;;;;;;;12.65;100.00;96626.59;4907743;29;20247;-56
2022/09/12 02:10:49;;;;;;;3.73;2.30;;;;;;;12.60;100.00;96627.09;4907669;29;20296;-56
2022/09/12 02:13:19;;;;;;;3.37;2.30;;;;;;;12.63;100.00;96624.13;4909379;29;20216;-56
2022/09/12 02:15:49;;;;;;;2.37;2.17;;;;;;;12.63;100.00;96616.16;4912237;29;20242;-55
2022/09/12 02:18:18;;;;;;;2.10;2.00;;;;;;;12.60;100.00;96623.59;4912394;29;20204;-55
2022/09/12 02:20:46;;;;;;;2.47;2.20;;;;;;;12.58;100.00;96621.09;4908566;29;20248;-56
2022/09/12 02:23:15;;;;;;;2.53;2.27;;;;;;;12.57;100.00;96618.59;4907999;29;20291;-56
2022/09/12 02:25:44;;;;;;;3.50;2.33;;;;;;;12.50;100.00;96618.41;4907480;29;20296;-57
2022/09/12 02:28:15;;;;;;;2.53;2.33;;;;;;;12.54;100.00;96616.28;4908681;29;20630;-57
2022/09/12 02:30:44;;;;;;;3.00;2.20;;;;;;;12.47;100.00;96613.38;4909139;29;20247;-57
2022/09/12 02:33:18;;;;;;;2.40;2.20;;;;;;;12.54;100.00;96619.72;4909974;29;20230;-56
2022/09/12 02:35:48;;;;;;;2.27;2.10;;;;;;;12.48;100.00;96620.34;4912690;29;20224;-55
2022/09/12 02:38:20;;;;;;;4.77;2.17;;;;;;;12.43;100.00;96615.50;4908904;29;20590;-56
2022/09/12 02:40:47;;;;;;;3.40;2.43;;;;;;;12.43;100.00;96627.97;4910098;29;20296;-55
2022/09/12 02:43:13;;;;;;;2.83;2.30;;;;;;;12.47;100.00;96621.34;4909101;29;20228;-56
2022/09/12 02:45:41;;;;;;;2.57;2.40;;;;;;;12.51;100.00;96625.34;4908416;29;20212;-57
2022/09/12 02:48:10;;;;;;;3.87;2.53;;;;;;;12.50;100.00;96621.06;4909590;29;20288;-55
2022/09/12 02:50:38;;;;;;;2.27;2.07;;;;;;;12.50;100.00;96613.09;4908050;29;20306;-56
2022/09/12 02:53:07;;;;;;;2.70;2.50;;;;;;;12.51;100.00;96606.78;4907534;29;20223;-56
2022/09/12 02:55:35;;;;;;;2.33;2.17;;;;;;;12.48;100.00;96610.59;4908171;29;21493;-56
2022/09/12 02:58:03;;;;;;;2.53;2.37;;;;;;;12.48;100.00;96609.75;4910276;29;20218;-56
2022/09/12 03:00:31;;;;;;;2.50;2.30;;;;;;;12.43;100.00;96612.06;4907262;29;20208;-56
2022/09/12 03:03:17;;;;;;;2.70;2.50;;;;;;;12.39;100.00;96610.69;4906638;29;20211;-56
2022/09/12 03:05:49;;;;;;;3.23;2.10;;;;;;;12.41;100.00;96609.53;4907097;29;20218;-55
2022/09/12 03:08:29;;;;;;;3.50;2.57;;;;;;;12.39;100.00;96608.03;4906634;29;20326;-56
2022/09/12 03:11:09;;;;;;;2.60;2.40;;;;;;;12.42;100.00;96607.72;4906487;29;20214;-56
2022/09/12 03:13:44;;;;;;;4.47;2.47;;;;;;;12.43;100.00;96617.34;4906844;29;20212;-55
2022/09/12 03:16:17;;;;;;;3.23;2.50;;;;;;;12.33;100.00;96611.28;4906587;29;20208;-55
2022/09/12 03:18:51;;;;;;;2.77;2.20;;;;;;;12.34;100.00;96610.31;4906933;29;20339;-56
2022/09/12 03:21:23;;;;;;;2.57;2.30;;;;;;;12.33;100.00;96611.28;4906219;29;20559;-56
2022/09/12 03:24:00;;;;;;;2.57;2.37;;;;;;;12.36;100.00;96613.66;4905957;29;20200;-54
2022/09/12 03:26:32;;;;;;;2.50;2.30;;;;;;;12.34;100.00;96611.16;4906468;29;20211;-55
2022/09/12 03:29:00;;;;;;;2.53;2.37;;;;;;;12.36;100.00;96617.13;4906851;29;20211;-55
2022/09/12 03:31:26;;;;;;;2.77;2.17;;;;;;;12.37;100.00;96613.47;4906412;29;20302;-56
2022/09/12 03:33:53;;;;;;;2.30;2.13;;;;;;;12.37;100.00;96617.94;4906278;29;20230;-56
2022/09/12 03:36:23;;;;;;;2.63;2.43;;;;;;;12.32;100.00;96620.25;4906237;29;20299;-56
2022/09/12 03:38:50;;;;;;;2.70;2.40;;;;;;;12.24;100.00;96612.22;4906360;29;20214;-56
2022/09/12 03:41:17;;;;;;;2.67;2.47;;;;;;;12.21;100.00;96616.03;4905920;29;20303;-57
2022/09/12 03:43:44;;;;;;;2.50;2.30;;;;;;;12.22;100.00;96614.22;4905961;29;20328;-56
2022/09/12 03:46:12;;;;;;;4.10;2.60;;;;;;;12.27;100.00;96611.91;4906195;29;20291;-57
2022/09/12 03:48:38;;;;;;;2.60;2.40;;;;;;;12.28;100.00;96619.72;4906050;29;20223;-55
2022/09/12 03:51:07;;;;;;;2.60;2.40;;;;;;;12.21;100.00;96615.19;4906007;29;20211;-56
2022/09/12 03:53:35;;;;;;;2.90;2.70;;;;;;;12.21;100.00;96618.69;4906408;29;20243;-56
2022/09/12 03:56:06;;;;;;;2.83;2.30;;;;;;;12.19;100.00;96614.50;4905684;29;20236;-56
2022/09/12 03:58:34;;;;;;;2.63;2.43;;;;;;;12.13;100.00;96615.94;4905164;29;20652;-56
2022/09/12 04:01:01;;;;;;;3.53;2.57;;;;;;;12.09;100.00;96614.59;4906287;29;20212;-56
2022/09/12 04:03:27;;;;;;;5.47;3.10;;;;;;;12.11;100.00;96615.28;4902970;29;20260;-56
2022/09/12 04:05:57;;;;;;;3.67;2.60;;;;;;;12.08;100.00;96617.41;4905681;29;20729;-57
2022/09/12 04:08:25;;;;;;;4.60;2.90;;;;;;;12.05;100.00;96623.81;4905582;29;20211;-56
2022/09/12 04:10:53;;;;;;;5.43;3.07;;;;;;;12.05;100.00;96613.22;4906258;29;20283;-56
2022/09/12 04:13:20;;;;;;;3.30;3.00;;;;;;;12.05;100.00;96613.22;4905439;29;20320;-56
2022/09/12 04:15:56;;;;;;;3.00;2.80;;;;;;;12.10;100.00;96616.25;4906323;29;20549;-56
2022/09/12 04:18:22;;;;;;;2.97;2.77;;;;;;;12.11;100.00;96617.09;4905258;29;20250;-56
2022/09/12 04:20:49;;;;;;;4.33;2.90;;;;;;;12.10;100.00;96613.63;4905757;29;20205;-55
2022/09/12 04:23:16;;;;;;;4.37;2.80;;;;;;;12.15;100.00;96624.56;4906147;29;20600;-56
2022/09/12 04:25:42;;;;;;;3.40;2.53;;;;;;;12.07;100.00;96615.75;4906087;29;20308;-54
2022/09/12 04:28:10;;;;;;;4.30;3.00;;;;;;;12.02;100.00;96618.00;4905477;29;20236;-56
2022/09/12 04:30:37;;;;;;;3.00;2.60;;;;;;;11.98;100.00;96618.31;4905493;29;20207;-56
2022/09/12 04:33:04;;;;;;;3.33;2.90;;;;;;;12.01;100.00;96619.00;4905947;29;20242;-56
2022/09/12 04:35:30;;;;;;;2.70;2.50;;;;;;;12.05;100.00;96623.00;4905552;29;20212;-56
2022/09/12 04:37:57;;;;;;;3.53;3.20;;;;;;;12.01;100.00;96621.66;4905693;29;20222;-55
2022/09/12 04:40:23;;;;;;;3.10;2.80;;;;;;;12.00;100.00;96625.28;4905433;29;20312;-56
2022/09/12 04:42:50;;;;;;;3.20;2.97;;;;;;;11.96;100.00;96625.59;4905949;29;20205;-55
2022/09/12 04:45:18;;;;;;;3.57;3.20;;;;;;;11.89;100.00;96621.88;4905397;29;20295;-55
2022/09/12 04:47:45;;;;;;;6.13;3.30;;;;;;;12.00;100.00;96625.28;4906003;29;20299;-56
2022/09/12 04:50:13;;;;;;;3.50;3.20;;;;;;;12.00;100.00;96620.81;4890018;29;20209;-56
2022/09/12 04:52:40;;;;;;;3.43;3.20;;;;;;;11.97;100.00;96626.44;4907460;29;20310;-57
2022/09/12 04:55:08;;;;;;;5.63;3.07;;;;;;;11.95;100.00;96628.38;4906728;29;20550;-56
2022/09/12 04:57:35;;;;;;;3.83;3.40;;;;;;;11.95;100.00;96625.72;4905532;29;20200;-55
2022/09/12 05:00:05;;;;;;;3.60;2.90;;;;;;;11.92;100.00;96626.88;4906183;29;20222;-56
2022/09/12 05:02:34;;;;;;;4.10;3.23;;;;;;;11.89;100.00;96627.19;4910549;29;20255;-55
2022/09/12 05:05:01;;;;;;;6.03;3.60;;;;;;;11.93;100.00;96628.56;4911225;29;20290;-56
2022/09/12 05:07:28;;;;;;;4.07;3.10;;;;;;;11.92;100.00;96621.56;4911260;29;20211;-56
2022/09/12 05:09:55;;;;;;;4.03;3.43;;;;;;;11.91;100.00;96622.56;4908050;29;20267;-56
2022/09/12 05:12:22;;;;;;;5.57;3.37;;;;;;;11.94;100.00;96627.53;4907999;29;20192;-55
2022/09/12 05:14:48;;;;;;;3.93;3.50;;;;;;;11.98;100.00;96628.91;4911836;29;20242;-54
2022/09/12 05:17:15;;;;;;;4.57;3.70;;;;;;;12.02;100.00;96626.78;4913560;29;20629;-54
2022/09/12 05:19:43;;;;;;;5.20;3.40;;;;;;;12.04;100.00;96616.88;4912211;29;20295;-54
2022/09/12 05:22:09;;;;;;;5.03;3.53;;;;;;;12.14;100.00;96625.56;4915119;29;20208;-54
2022/09/12 05:24:38;;;;;;;4.07;3.70;;;;;;;12.18;100.00;96628.75;4914248;29;20202;-56
2022/09/12 05:27:05;;;;;;;4.77;3.63;;;;;;;12.22;100.00;96627.47;4915609;29;20204;-54
2022/09/12 05:29:32;;;;;;;4.80;3.60;;;;;;;12.23;100.00;96621.16;4911445;29;20300;-54
2022/09/12 05:32:01;;;;;;;5.20;3.63;;;;;;;12.24;100.00;96623.66;4917767;29;20291;-55
2022/09/12 05:34:30;;;;;;;3.70;3.50;;;;;;;12.29;100.00;96629.31;4913023;29;20304;-54
2022/09/12 05:36:58;;;;;;;3.60;3.30;;;;;;;12.32;100.00;96631.69;4915186;29;20736;-55
2022/09/12 05:39:24;;;;;;;4.07;3.50;;;;;;;12.38;100.00;96640.84;4921014;29;20224;-55
2022/09/12 05:41:51;;;;;;;8.67;3.60;;;;;;;12.40;100.00;96644.16;4921249;29;20306;-55
2022/09/12 05:44:18;;;;;;;4.47;3.80;;;;;;;12.41;100.00;96646.66;4904669;29;20243;-55
2022/09/12 05:46:47;;;;;;;4.50;3.77;;;;;;;12.47;100.00;96639.91;4920781;29;20533;-58
2022/09/12 05:49:14;;;;;;;4.30;3.90;;;;;;;12.52;100.00;96647.41;4919377;29;20625;-55
2022/09/12 05:51:43;;;;;;;4.57;3.50;;;;;;;12.59;100.00;96649.28;4908419;29;20227;-54
2022/09/12 05:54:13;;;;;;;5.70;4.30;;;;;;;12.83;100.00;96660.06;4920733;29;20243;-56
2022/09/12 05:56:41;;;;;;;5.73;4.67;;;;;;;13.07;100.00;96653.25;4920367;29;20231;-55
2022/09/12 05:59:11;;;;;;;5.23;4.73;;;;;;;13.30;100.00;96657.03;4919609;29;20239;-54
2022/09/12 06:01:38;;;;;;;6.00;5.50;;;;;;;13.41;100.00;96651.44;4901926;29;20215;-56
2022/09/12 06:04:09;;;;;;;6.00;5.13;;;;;;;13.54;100.00;96653.63;4915557;29;20196;-56
2022/09/12 06:06:37;;;;;;;6.30;5.70;;;;;;;13.66;100.00;96661.16;4921076;29;20231;-55
2022/09/12 06:09:05;;;;;;;7.13;6.03;;;;;;;13.87;100.00;96658.88;4920666;29;20290;-56
2022/09/12 06:11:36;;;;;;;8.67;5.70;;;;;;;14.05;100.00;96649.94;4921335;29;20291;-57
2022/09/12 06:14:03;;;;;;;7.60;5.67;;;;;;;14.21;100.00;96655.25;4920083;29;20220;-54
2022/09/12 06:16:32;;;;;;;7.60;6.13;;;;;;;14.31;100.00;96658.63;4919513;29;20254;-55
2022/09/12 06:18:59;;;;;;;6.93;6.23;;;;;;;14.52;100.00;96652.81;4919579;29;20369;-56
2022/09/12 06:21:27;;;;;;;6.70;6.00;;;;;;;14.63;100.00;96652.47;4920437;29;20303;-56
2022/09/12 06:23:54;;;;;;;9.83;6.03;;;;;;;15.09;100.00;96657.03;4920081;29;20203;-57
2022/09/12 06:26:22;;;;;;;8.10;6.00;;;;;;;15.96;100.00;96650.72;4918920;29;20303;-56
2022/09/12 06:28:50;;;;;;;6.65;6.05;;;;;;;16.99;94.78;96659.09;4919897;29;20216;-56
2022/09/12 06:31:19;;;;;;;8.15;7.22;;;;;;;17.73;91.48;96658.94;4920086;29;20311;-55
2022/09/12 06:33:47;;;;;;;6.75;6.25;;;;;;;18.35;87.29;96655.72;4919523;29;20232;-56
2022/09/12 06:36:15;;;;;;;8.60;6.38;;;;;;;18.87;84.02;96660.72;4919780;29;20280;-56
2022/09/12 06:38:42;;;;;;;7.22;6.45;;;;;;;18.97;81.79;96652.34;4919990;29;20295;-56
2022/09/12 06:41:11;;;;;;;6.93;6.43;;;;;;;19.11;79.51;96643.38;4903093;29;20656;-55
2022/09/12 06:43:38;;;;;;;6.95;6.28;;;;;;;19.41;78.93;96652.03;4919519;29;20267;-56
2022/09/12 06:46:06;;;;;;;6.53;5.97;;;;;;;19.63;78.39;96654.44;4919434;29;20283;-56
2022/09/12 06:48:33;;;;;;;7.13;6.45;;;;;;;19.72;77.10;96647.91;4919626;29;20290;-54
2022/09/12 06:51:01;;;;;;;6.57;5.97;;;;;;;19.83;76.17;96647.31;4921469;29;20204;-56
2022/09/12 06:53:28;;;;;;;7.35;5.82;;;;;;;19.55;78.03;96657.31;4919496;29;20234;-55
2022/09/12 06:55:57;;;;;;;6.68;6.15;;;;;;;19.37;78.97;96659.66;4919364;29;20295;-56
2022/09/12 06:58:24;;;;;;;7.07;6.47;;;;;;;19.10;79.64;96655.13;4919561;29;20220;-56
2022/09/12 07:00:51;;;;;;;7.55;5.95;;;;;;;19.32;78.89;96656.72;4919084;29;20712;-56
2022/09/12 07:03:19;;;;;;;8.02;6.75;;;;;;;19.09;81.37;96658.84;4918840;29;20196;-56
2022/09/12 07:05:45;;;;;;;7.10;6.50;;;;;;;18.93;77.73;96661.78;4919007;29;20290;-55
2022/09/12 07:08:12;;;;;;;7.05;6.45;;;;;;;18.80;80.40;96657.19;4919006;29;20697;-56
2022/09/12 07:10:39;;;;;;;6.63;6.03;;;;;;;18.51;80.08;96662.69;4919704;29;20744;-56
2022/09/12 07:13:05;;;;;;;6.88;6.18;;;;;;;18.56;79.97;96655.75;4919975;29;20290;-54
2022/09/12 07:15:34;;;;;;;6.15;5.47;;;;;;;18.22;82.41;96658.22;4920230;29;20240;-55
2022/09/12 07:18:01;;;;;;;6.93;6.32;;;;;;;18.10;85.84;96654.41;4918802;29;20283;-55
2022/09/12 07:20:31;;;;;;;7.97;7.22;;;;;;;17.92;85.45;96652.16;4918852;29;20206;-55
2022/09/12 07:22:58;;;;;;;7.43;6.75;;;;;;;17.48;86.80;96654.84;4918347;29;20228;-55
2022/09/12 07:25:25;;;;;;;7.20;6.60;;;;;;;17.20;88.46;96653.84;4918643;29;20286;-56
2022/09/12 07:27:52;;;;;;;7.45;6.75;;;;;;;17.10;90.02;96647.94;4918479;29;20258;-57
2022/09/12 07:30:19;;;;;;;8.70;7.85;;;;;;;16.86;90.08;96649.03;4918567;29;20653;-55
2022/09/12 07:32:46;;;;;;;7.70;6.90;;;;;;;16.81;91.08;96654.06;4917749;29;20283;-56
2022/09/12 07:35:12;;;;;;;7.82;7.03;;;;;;;16.76;93.53;96649.28;4918396;29;20729;-56
2022/09/12 07:37:40;;;;;;;7.70;7.00;;;;;;;16.79;92.10;96645.44;4918784;29;20304;-55
2022/09/12 07:40:07;;;;;;;7.25;6.65;;;;;;;16.63;93.05;96646.41;4918479;29;20607;-55
2022/09/12 07:42:34;;;;;;;6.80;6.13;;;;;;;16.84;94.40;96649.19;4918454;29;20595;-55
2022/09/12 07:45:01;;;;;;;8.27;6.85;;;;;;;16.95;91.42;96642.59;4917567;29;20227;-55
2022/09/12 07:47:27;;;;;;;6.70;6.10;;;;;;;16.94;93.20;96651.59;4918940;29;20272;-55
2022/09/12 07:49:54;;;;;;;6.43;5.90;;;;;;;16.92;93.46;96649.13;4908652;29;20302;-56
2022/09/12 07:52:21;;;;;;;6.55;5.93;;;;;;;16.96;92.50;96643.41;4918237;29;20653;-56
2022/09/12 07:54:48;;;;;;;6.25;5.65;;;;;;;17.09;94.05;96643.59;4918634;29;20316;-56
2022/09/12 07:57:15;;;;;;;6.60;5.70;;;;;;;17.06;92.19;96638.63;4918386;29;20283;-56
2022/09/12 07:59:42;;;;;;;5.85;5.25;;;;;;;17.18;91.64;96637.19;4910557;29;20207;-56
2022/09/12 08:02:13;;;;;;;5.53;5.13;;;;;;;17.34;92.04;96626.28;4917587;29;20204;-56
2022/09/12 08:04:40;;;;;;;5.97;5.47;;;;;;;17.39;92.27;96639.94;4908609;29;20212;-56
2022/09/12 08:07:07;;;;;;;6.00;5.50;;;;;;;17.44;90.92;96637.53;4917200;29;20208;-57
2022/09/12 08:09:34;;;;;;;6.78;6.18;;;;;;;17.36;91.42;96640.28;4918364;29;20292;-56
2022/09/12 08:12:02;;;;;;;5.78;5.35;;;;;;;17.48;91.00;96637.97;4918221;29;20567;-56
2022/09/12 08:14:29;;;;;;;6.68;6.03;;;;;;;17.35;90.75;96639.47;4918277;29;20318;-56
2022/09/12 08:16:55;;;;;;;6.70;6.13;;;;;;;17.36;91.55;96635.78;4918280;29;20216;-56
2022/09/12 08:19:22;;;;;;;6.68;5.60;;;;;;;17.34;92.12;96642.34;4917429;29;20250;-56
2022/09/12 08:21:49;;;;;;;6.22;5.57;;;;;;;17.30;91.21;96646.38;4917010;29;20215;-56
2022/09/12 08:24:16;;;;;;;6.13;5.53;;;;;;;17.27;91.33;96641.41;4918918;29;20200;-55
2022/09/12 08:26:42;;;;;;;6.40;5.72;;;;;;;17.51;91.84;96643.78;4918634;29;20254;-53
2022/09/12 08:29:11;;;;;;;5.32;4.93;;;;;;;17.71;91.05;96634.19;4918752;29;20214;-53
2022/09/12 08:31:40;;;;;;;6.28;5.68;;;;;;;17.89;90.07;96631.94;4916667;29;20235;-54
2022/09/12 08:34:07;;;;;;;5.82;5.30;;;;;;;18.12;88.76;96630.97;4918331;29;20263;-53
2022/09/12 08:36:34;;;;;;;6.55;5.95;;;;;;;18.17;86.57;96637.41;4914062;29;20294;-53
2022/09/12 08:39:03;;;;;;;5.82;5.25;;;;;;;18.39;86.64;96628.34;4918290;29;20323;-52
2022/09/12 08:41:33;;;;;;;7.93;5.55;;;;;;;18.39;85.20;96639.06;4918371;29;20286;-54
2022/09/12 08:44:24;;;;;;;8.00;5.45;;;;;;;18.70;85.42;96638.75;4918184;29;20238;-53
2022/09/12 08:47:01;;;;;;;5.90;5.40;;;;;;;18.64;83.49;96647.56;4915471;29;20696;-53
2022/09/12 08:49:30;;;;;;;6.30;5.60;;;;;;;18.67;82.13;96639.13;4918125;29;20218;-54
2022/09/12 08:52:03;;;;;;;5.20;4.80;;;;;;;18.98;82.88;96652.16;4912524;29;20708;-54
2022/09/12 08:54:31;;;;;;;7.38;5.63;;;;;;;19.00;79.80;96641.22;4920932;29;20306;-53
2022/09/12 08:57:05;;;;;;;5.18;4.78;;;;;;;19.23;79.58;96644.50;4921571;29;20295;-54
2022/09/12 08:59:37;;;;;;;7.35;5.63;;;;;;;19.56;79.01;96637.47;4921474;29;20195;-52
2022/09/12 09:02:08;;;;;;;5.00;4.15;;;;;;;19.95;79.08;96638.66;4921693;29;20202;-53
2022/09/12 09:04:44;;;;;;;10.98;5.35;;;;;;;20.22;76.92;96640.41;4921070;29;20749;-53
2022/09/12 09:07:33;;;;;;;5.15;4.70;;;;;;;20.44;73.55;96636.53;4922144;29;20208;-52
2022/09/12 09:10:12;;;;;;;6.53;4.80;;;;;;;20.69;73.88;96640.28;4921830;29;20306;-54
2022/09/12 09:12:46;;;;;;;9.48;5.00;;;;;;;20.67;71.26;96628.94;4921578;29;20282;-54
2022/09/12 09:15:40;;;;;;;5.97;4.00;;;;;;;20.92;73.36;96639.06;4921017;29;20215;-54
2022/09/12 09:18:12;;;;;;;8.20;5.13;;;;;;;21.26;72.00;96630.78;4920556;29;20280;-54
2022/09/12 09:20:43;;;;;;;5.05;4.55;;;;;;;21.45;69.75;96627.22;4921131;29;20247;-55
2022/09/12 09:23:14;;;;;;;4.70;4.00;;;;;;;21.67;70.31;96625.09;4920671;29;20219;-53
2022/09/12 09:25:45;;;;;;;8.02;3.88;;;;;;;21.86;69.03;96624.16;4921014;29;20286;-53
2022/09/12 09:28:16;;;;;;;4.18;3.60;;;;;;;22.24;67.37;96626.91;4935682;29;20200;-55
2022/09/12 09:30:45;;;;;;;6.63;4.38;;;;;;;22.31;64.92;96625.84;4940524;29;20236;-55
2022/09/12 09:33:23;;;;;;;4.70;3.70;;;;;;;22.41;65.27;96627.22;4940401;29;20219;-54
2022/09/12 09:35:59;;;;;;;5.72;3.58;;;;;;;22.50;65.16;96623.22;4930057;29;20589;-54
2022/09/12 09:38:34;;;;;;;4.22;3.72;;;;;;;22.45;64.85;96625.75;4922510;29;20237;-54
2022/09/12 09:41:25;;;;;;;5.47;3.90;;;;;;;22.44;64.70;96622.22;4921232;29;20227;-53
2022/09/12 09:43:52;;;;;;;5.18;3.70;;;;;;;22.50;66.22;96615.94;4908471;29;20323;-55
2022/09/12 09:46:20;;;;;;;4.80;3.65;;;;;;;22.67;65.20;96614.41;4910422;29;20292;-54
2022/09/12 09:48:48;;;;;;;3.78;3.47;;;;;;;22.39;64.38;96613.16;4920181;29;20595;-55
2022/09/12 09:51:19;;;;;;;4.40;3.78;;;;;;;22.46;65.79;96613.94;4907710;29;20298;-55
2022/09/12 09:53:48;;;;;;;4.63;3.33;;;;;;;22.66;65.25;96612.75;4918839;29;20208;-54
2022/09/12 09:56:25;;;;;;;10.48;4.07;;;;;;;22.41;64.71;96614.56;4920935;29;20214;-54
2022/09/12 09:58:52;;;;;;;3.55;3.10;;;;;;;22.80;65.42;96608.09;4920949;29;20195;-55
2022/09/12 10:01:20;;;;;;;4.30;3.80;;;;;;;22.89;65.16;96608.63;4919442;29;20594;-53
2022/09/12 10:03:51;;;;;;;6.28;3.53;;;;;;;22.70;64.44;96605.91;4920623;29;20291;-55
2022/09/12 10:06:27;;;;;;;3.40;3.10;;;;;;;22.86;65.22;96604.50;4920819;29;20219;-53
2022/09/12 10:09:05;;;;;;;5.53;3.75;;;;;;;23.29;64.34;96602.66;4920066;29;20204;-55
2022/09/12 10:11:33;;;;;;;3.50;3.10;;;;;;;23.07;61.69;96603.28;4920435;29;20302;-56
2022/09/12 10:14:00;;;;;;;3.50;3.20;;;;;;;23.14;61.47;96602.16;4920889;29;20228;-54
2022/09/12 10:16:30;;;;;;;3.50;3.20;;;;;;;23.02;63.74;96595.03;4921158;29;20233;-55
2022/09/12 10:18:58;;;;;;;3.17;2.88;;;;;;;22.89;61.73;96601.38;4903852;29;20291;-61
2022/09/12 10:21:29;;;;;;;5.60;3.30;;;;;;;23.14;62.88;96599.47;4920918;29;20295;-56
2022/09/12 10:24:03;;;;;;;5.80;3.42;;;;;;;23.49;63.59;96597.06;4921833;29;20307;-56
2022/09/12 10:26:34;;;;;;;4.57;3.30;;;;;;;23.29;61.99;96593.72;4921192;29;20208;-56
2022/09/12 10:29:04;;;;;;;5.88;3.50;;;;;;;23.48;61.71;96584.63;4921726;29;20681;-55
2022/09/12 10:31:43;;;;;;;3.60;3.30;;;;;;;23.58;61.43;96584.09;4920143;29;20672;-55
2022/09/12 10:34:22;;;;;;;4.25;3.30;;;;;;;23.70;62.20;96580.38;4913688;29;20283;-54
2022/09/12 10:36:49;;;;;;;3.63;3.13;;;;;;;23.73;60.35;96577.25;4918874;29;20200;-55
2022/09/12 10:39:21;;;;;;;8.63;3.67;;;;;;;23.65;60.21;96580.25;4920468;29;20275;-55
2022/09/12 10:41:47;;;;;;;3.55;3.25;;;;;;;23.72;60.14;96577.47;4908291;29;20595;-55
2022/09/12 10:44:17;;;;;;;3.58;2.80;;;;;;;24.16;60.91;96576.31;4919339;29;20322;-54
2022/09/12 10:46:45;;;;;;;3.30;2.90;;;;;;;24.15;59.23;96585.47;4915431;29;20294;-54
2022/09/12 10:49:24;;;;;;;4.00;3.10;;;;;;;24.10;59.84;96577.16;4919476;29;20291;-54
2022/09/12 10:51:52;;;;;;;5.45;2.60;;;;;;;24.18;60.97;96572.31;4919747;29;20239;-55
2022/09/12 10:54:20;;;;;;;3.08;2.78;;;;;;;24.02;58.57;96580.22;4919328;29;20262;-55
2022/09/12 10:57:06;;;;;;;3.15;2.78;;;;;;;23.96;58.52;96575.69;4919544;29;20214;-54
2022/09/12 10:59:40;;;;;;;2.92;2.72;;;;;;;24.39;58.62;96568.25;4919752;29;20290;-55
2022/09/12 11:02:15;;;;;;;3.58;3.13;;;;;;;24.18;58.02;96564.22;4919093;29;20600;-54
2022/09/12 11:04:49;;;;;;;4.03;2.78;;;;;;;24.59;57.13;96560.66;4919022;29;20591;-55
2022/09/12 11:07:27;;;;;;;4.57;2.90;;;;;;;24.65;58.08;96556.19;4918877;29;20306;-55
2022/09/12 11:10:00;;;;;;;3.08;2.50;;;;;;;25.15;57.32;96551.19;4919001;29;20196;-56
2022/09/12 11:12:32;;;;;;;2.58;2.38;;;;;;;25.03;56.81;96553.91;4919080;29;20211;-56
2022/09/12 11:15:07;;;;;;;2.78;2.38;;;;;;;25.17;57.66;96547.19;4919211;29;20234;-55
2022/09/12 11:17:43;;;;;;;2.22;2.08;;;;;;;25.30;59.86;96546.09;4907143;29;20609;-55
2022/09/12 11:20:29;;;;;;;3.58;2.55;;;;;;;25.29;56.39;96549.88;4918308;29;20214;-55
2022/09/12 11:23:07;;;;;;;2.63;2.28;;;;;;;24.99;55.55;96538.34;4918714;29;20547;-55
2022/09/12 11:25:38;;;;;;;2.90;1.90;;;;;;;25.18;57.83;96538.00;4906195;29;20303;-54
2022/09/12 11:28:28;;;;;;;2.28;2.08;;;;;;;25.15;55.88;96537.66;4919062;29;20645;-54
2022/09/12 11:31:09;;;;;;;2.50;2.30;;;;;;;25.17;56.91;96544.47;4918644;29;20203;-54
2022/09/12 11:33:42;;;;;;;2.50;2.30;;;;;;;25.10;57.08;96534.81;4918662;29;20287;-55
2022/09/12 11:36:17;;;;;;;3.40;2.00;;;;;;;25.26;56.81;96540.34;4918709;29;20575;-54
2022/09/12 11:38:52;;;;;;;2.60;2.00;;;;;;;25.19;57.14;96544.22;4918822;29;20207;-55
2022/09/12 11:41:25;;;;;;;3.58;2.38;;;;;;;25.34;55.51;96541.84;4918870;29;20227;-54
2022/09/12 11:43:55;;;;;;;2.15;1.90;;;;;;;25.54;58.09;96534.19;4918425;29;20326;-54